Latest Weather Observations for Wilcannia Airport

IDN60801

Issued at 11:33 am EST Thursday 1 September 2016 (issued every 30 minutes, with the page automatically refreshed every 10 minutes)

About weather observations | Map of weather stations | Latest weather observations for NSW | Other Formats
Station Details ID: 046012 Name: WILCANNIA AERODROME AWS Lat: -31.52 Lon: 143.38 Height: 94.3 m
Data from the previous 72 hours. | See also: Recent months at Wilcannia Airport
Date/Time
EST
Temp
°C
App
Temp
°C
Dew
Point
°C
Rel
Hum
%
Delta-T
°C
Wind Press
QNH
hPa
Press
MSL
hPa
Rain since
9am
mm
Dir  Spd
km/h
Gust
km/h
Spd
kts
Gust
kts
01/11:30am 21.5 18.7 11.5 53 5.6 NE 17 24 9 13 1016.0 1015.8 0.0
01/11:00am 21.0 17.9 12.2 57 5.0 NE 20 26 11 14 1016.3 1016.2 0.0
01/10:30am 20.2 17.2 12.7 62 4.2 NE 20 26 11 14 1016.6 1016.5 0.0
01/10:00am 18.6 16.2 12.8 69 3.3 ENE 17 22 9 12 1017.3 1017.2 0.0
01/09:30am 15.8 13.6 12.2 79 2.0 NE 15 20 8 11 1017.9 1017.9 0.0
01/09:00am 14.5 12.5 11.5 82 1.6 ENE 13 17 7 9 1017.9 1017.9 0.2
01/08:30am 13.6 11.8 11.0 84 1.4 ENE 11 15 6 8 1017.8 1017.8 0.2
01/08:00am 13.1 10.8 10.3 83 1.5 ENE 13 17 7 9 1017.7 1017.7 0.2
01/07:30am 13.0 10.7 10.5 85 1.3 ENE 13 17 7 9 1017.5 1017.5 0.2
01/07:00am 11.8 9.3 9.7 87 1.1 ENE 13 17 7 9 1017.2 1017.2 0.2
01/06:30am 11.1 9.6 9.2 88 1.0 ENE 7 11 4 6 1017.0 1017.0 0.2
01/06:00am 11.6 9.8 9.5 87 1.1 ENE 9 13 5 7 1017.0 1017.0 0.2
01/05:30am 11.2 8.1 8.9 86 1.1 E 15 17 8 9 1016.7 1016.7 0.2
01/05:00am 12.2 8.9 9.6 84 1.3 ESE 17 22 9 12 1016.6 1016.6 0.2
01/04:30am 11.3 8.8 9.6 89 0.9 E 13 17 7 9 1016.9 1016.9 0.2
01/04:00am 11.4 8.9 9.7 89 0.9 E 13 15 7 8 1017.1 1017.1 0.2
01/03:30am 11.4 8.5 9.5 88 1.0 ESE 15 17 8 9 1017.3 1017.3 0.2
01/03:00am 12.0 9.8 10.7 92 0.7 ESE 13 15 7 8 1017.6 1017.6 0.2
01/02:30am 10.5 8.3 9.4 93 0.6 SE 11 13 6 7 1018.0 1018.0 0.2
01/02:00am 9.9 7.5 8.7 92 0.6 SE 11 13 6 7 1018.4 1018.4 0.2
01/01:30am 10.2 8.7 9.0 92 0.6 SSE 7 9 4 5 1018.9 1018.9 0.2
01/01:00am 10.0 7.9 8.3 89 0.8 SSE 9 11 5 6 1019.0 1019.0 0.2
01/12:30am 10.7 9.2 9.0 89 0.8 SW 7 9 4 5 1019.1 1019.1 0.2
01/12:00am 11.4 9.7 9.7 89 0.9 WSW 9 13 5 7 1019.0 1019.0 0.2
 
Date/Time
EST
Temp
°C
App
Temp
°C
Dew
Point
°C
Rel
Hum
%
Delta-T
°C
Wind Press
QNH
hPa
Press
MSL
hPa
Rain since
9am
mm
Dir  Spd
km/h
Gust
km/h
Spd
kts
Gust
kts
31/11:30pm 11.3 9.9 9.6 89 0.9 WSW 7 9 4 5 1019.1 1019.1 0.2
31/11:00pm 11.9 10.6 10.1 89 0.9 W 7 11 4 6 1019.3 1019.3 0.2
31/10:30pm 11.8 10.6 9.7 87 1.1 W 6 7 3 4 1019.2 1019.2 0.2
31/10:00pm 11.7 11.7 9.9 89 0.9 CALM 0 0 0 0 1019.2 1019.2 0.2
31/09:30pm 11.9 11.9 9.8 87 1.1 CALM 0 0 0 0 1019.0 1019.0 0.2
31/09:00pm 12.6 12.8 10.7 88 1.0 CALM 0 0 0 0 1018.9 1018.9 0.2
31/08:30pm 12.6 12.8 10.7 88 1.0 CALM 0 0 0 0 1018.7 1018.7 0.2
31/08:00pm 12.9 12.3 10.4 85 1.3 W 4 6 2 3 1018.4 1018.4 0.2
31/07:30pm 13.7 12.7 10.3 80 1.8 W 6 6 3 3 1018.3 1018.3 0.2
31/07:00pm 14.8 13.8 10.2 74 2.4 W 6 7 3 4 1018.0 1018.0 0.2
31/06:30pm 17.1 15.2 10.5 65 3.5 W 11 11 6 6 1017.9 1017.9 0.2
31/06:00pm 19.3 18.1 10.3 56 4.8 W 7 9 4 5 1017.7 1017.7 0.2
31/05:30pm 20.9 18.3 9.2 47 6.2 WNW 13 17 7 9 1017.4 1017.4 0.2
31/05:00pm 21.6 18.9 8.8 44 6.8 W 13 19 7 10 1017.3 1017.3 0.2
31/04:30pm 22.1 18.8 9.6 45 6.8 W 17 20 9 11 1017.2 1017.2 0.2
31/04:00pm 22.1 18.6 8.9 43 7.0 WNW 17 20 9 11 1017.2 1017.2 0.2
31/03:30pm 22.0 19.5 11.1 50 6.1 W 15 20 8 11 1017.4 1017.4 0.2
31/03:00pm 22.4 19.9 11.2 49 6.2 WNW 15 22 8 12 1017.6 1017.6 0.2
31/02:30pm 22.1 19.7 11.5 51 5.9 WNW 15 24 8 13 1017.7 1017.7 0.2
31/02:00pm 20.7 18.6 11.1 54 5.3 W 13 20 7 11 1017.9 1017.9 0.2
31/01:30pm 21.3 19.9 13.5 61 4.5 WNW 13 19 7 10 1018.0 1018.0 0.2
31/01:00pm 20.3 18.7 12.8 62 4.3 W 13 19 7 10 1018.4 1018.4 0.2
31/12:30pm 19.8 18.8 12.3 62 4.2 WNW 9 15 5 8 1018.7 1018.7 0.2
31/12:00pm 18.8 18.0 13.0 69 3.3 SW 9 15 5 8 1019.2 1019.2 0.2
31/11:30am 18.4 16.7 12.6 69 3.3 WSW 13 20 7 11 1019.6 1019.6 0.0
31/11:00am 18.0 16.8 14.1 78 2.2 WSW 13 19 7 10 1019.9 1020.0 0.0
31/10:30am 16.8 14.9 12.9 78 2.2 W 15 22 8 12 1019.8 1019.9 0.0
31/10:00am 16.0 13.4 13.3 84 1.5 W 19 24 10 13 1019.9 1020.0 0.0
31/09:30am 15.3 12.6 13.0 86 1.3 W 19 22 10 12 1019.9 1020.0 0.0
31/09:00am 15.5 13.3 13.2 86 1.3 WNW 17 22 9 12 1019.6 1019.6 24.0
31/08:30am 14.8 12.6 13.2 90 0.9 WNW 17 22 9 12 1019.4 1019.4 24.0
31/08:00am 14.1 12.7 13.3 95 0.4 WNW 13 17 7 9 1019.2 1019.2 24.0
31/07:30am 13.1 12.2 12.5 96 0.3 NW 9 13 5 7 1018.9 1018.9 24.0
31/07:00am 12.1 10.4 11.3 95 0.4 W 11 13 6 7 1018.6 1018.6 24.0
31/06:30am 12.6 11.1 11.8 95 0.4 WNW 11 15 6 8 1017.7 1017.7 24.0
31/06:00am 12.3 10.3 11.5 95 0.4 NW 13 15 7 8 1017.3 1017.3 24.0
31/05:30am 12.7 11.2 11.8 94 0.5 WNW 11 13 6 7 1016.7 1016.7 24.0
31/05:00am 13.7 12.5 12.8 94 0.5 WNW 11 15 6 8 1016.5 1016.5 24.0
31/04:30am 14.4 13.4 13.4 94 0.6 NW 11 15 6 8 1016.3 1016.3 24.0
31/04:00am 15.2 13.7 14.2 94 0.6 NW 15 20 8 11 1016.1 1016.1 24.0
31/03:30am 15.7 14.4 14.7 94 0.6 NW 15 22 8 12 1016.0 1016.0 23.8
31/03:00am 15.8 13.6 15.0 95 0.5 NNW 20 28 11 15 1015.9 1015.9 23.8
31/02:30am 15.7 14.8 14.9 95 0.5 NNW 13 17 7 9 1016.3 1016.3 23.8
31/02:00am 15.7 15.2 14.9 95 0.5 NNW 11 19 6 10 1016.4 1016.4 23.6
31/01:30am 15.7 14.8 14.9 95 0.5 NW 13 15 7 8 1016.5 1016.5 22.6
31/01:00am 15.8 14.5 14.8 94 0.6 WNW 15 22 8 12 1016.7 1016.7 18.4
31/12:30am 15.8 14.1 14.8 94 0.6 N 17 24 9 13 1016.7 1016.7 15.2
31/12:00am 15.8 13.6 14.8 94 0.6 NNE 20 28 11 15 1016.6 1016.6 14.4
 
Date/Time
EST
Temp
°C
App
Temp
°C
Dew
Point
°C
Rel
Hum
%
Delta-T
°C
Wind Press
QNH
hPa
Press
MSL
hPa
Rain since
9am
mm
Dir  Spd
km/h
Gust
km/h
Spd
kts
Gust
kts
30/11:30pm 15.9 14.6 14.8 93 0.6 N 15 24 8 13 1016.7 1016.7 13.8
30/11:00pm 15.9 13.8 14.8 93 0.6 N 19 24 10 13 1016.7 1016.7 13.4
30/10:30pm 15.9 13.7 14.8 93 0.6 N 20 32 11 17 1016.7 1016.7 12.6
30/10:00pm 15.1 14.3 14.1 94 0.6 NNE 11 15 6 8 1017.3 1017.3 11.8
30/09:30pm 15.0 13.4 14.0 94 0.6 NNE 15 19 8 10 1017.2 1017.2 11.4
30/09:00pm 14.8 13.5 13.8 94 0.6 NNE 13 17 7 9 1017.4 1017.4 11.0
30/08:30pm 14.5 13.1 13.5 94 0.6 NE 13 20 7 11 1017.5 1017.5 10.2
30/08:00pm 14.4 12.6 13.4 94 0.6 NE 15 20 8 11 1017.5 1017.5 9.8
30/07:30pm 14.4 11.6 13.3 93 0.6 NE 20 28 11 15 1017.3 1017.3 9.2
30/07:00pm 14.1 11.8 13.0 93 0.6 NE 17 22 9 12 1017.1 1017.1 8.6
30/06:30pm 14.4 12.9 13.1 92 0.7 NNE 13 19 7 10 1017.5 1017.5 7.6
30/06:00pm 14.3 12.4 13.0 92 0.7 NE 15 19 8 10 1017.4 1017.4 7.0
30/05:30pm 14.2 11.9 12.9 92 0.7 NNE 17 20 9 11 1017.6 1017.6 6.2
30/05:00pm 14.2 11.4 12.6 90 0.9 NE 19 24 10 13 1017.4 1017.4 4.4
30/04:30pm 14.3 11.5 12.7 90 0.9 ENE 19 22 10 12 1016.2 1016.2 4.0
30/04:00pm 14.2 11.2 12.4 89 1.0 ENE 20 24 11 13 1016.3 1016.3 4.0
30/03:30pm 14.4 12.5 13.0 91 0.8 E 15 19 8 10 1016.9 1016.9 4.0
30/03:00pm 14.3 12.7 12.9 91 0.8 E 13 17 7 9 1017.1 1017.1 3.8
30/02:30pm 14.2 12.5 12.4 89 1.0 E 13 17 7 9 1017.1 1017.1 2.6
30/02:00pm 14.5 12.8 12.4 87 1.1 ENE 13 17 7 9 1017.5 1017.5 1.6
30/01:30pm 14.9 13.6 12.6 86 1.3 E 11 13 6 7 1017.4 1017.4 1.2
30/01:00pm 15.1 13.5 12.8 86 1.3 E 13 15 7 8 1017.9 1017.9 1.0
30/12:30pm 15.5 14.4 12.1 80 1.9 NE 9 13 5 7 1018.8 1018.8 0.2
30/12:00pm 16.3 15.4 11.2 72 2.7 NE 7 9 4 5 1018.8 1018.8 0.0
30/11:30am 17.3 15.4 9.2 59 4.2 NNE 9 13 5 7 1019.3 1019.3 0.0
30/11:00am 16.7 15.0 9.9 64 3.6 NNE 9 13 5 7 1019.6 1019.6 0.0
30/10:30am 16.1 12.7 9.3 64 3.5 NNE 17 20 9 11 1019.3 1019.3 0.0
30/10:00am 15.8 12.9 9.7 67 3.2 NNE 15 22 8 12 1019.2 1019.2 0.0
30/09:30am 14.8 11.6 9.8 72 2.6 ENE 17 22 9 12 1019.0 1019.0 0.0
30/09:00am 14.0 10.7 9.4 74 2.4 ENE 17 22 9 12 1019.0 1019.0 0.0
30/08:30am 13.5 10.2 9.6 77 2.0 ENE 17 22 9 12 1018.5 1018.5 0.0
30/08:00am 13.1 9.8 9.4 78 1.9 NE 17 19 9 10 1018.8 1018.8 0.0
30/07:30am 13.2 10.7 8.3 72 2.4 NE 11 15 6 8 1018.7 1018.7 0.0
30/07:00am 13.3 10.3 7.5 68 2.8 ENE 13 17 7 9 1017.5 1017.5 0.0
30/06:30am 13.4 10.3 7.2 66 3.0 NE 13 17 7 9 1017.3 1017.3 0.0
30/06:00am 13.5 9.6 7.3 66 3.0 ENE 17 22 9 12 1017.2 1017.2 0.0
30/05:30am 13.7 9.8 7.0 64 3.3 ENE 17 22 9 12 1017.2 1017.2 0.0
30/05:00am 14.4 9.1 7.0 61 3.6 ENE 24 30 13 16 1016.2 1016.2 0.0
30/04:30am 14.4 10.1 7.2 62 3.5 ENE 19 24 10 13 1016.8 1016.8 0.0
30/04:00am 14.0 9.8 7.3 64 3.3 ENE 19 22 10 12 1016.7 1016.7 0.0
30/03:30am 13.8 10.3 7.3 65 3.2 ENE 15 17 8 9 1017.1 1017.1 0.0
30/03:00am 13.6 10.4 6.9 64 3.3 ENE 13 17 7 9 1017.7 1017.7 0.0
30/02:30am 13.6 10.0 6.7 63 3.3 ENE 15 19 8 10 1017.6 1017.6 0.0
30/02:00am 13.5 9.9 6.6 63 3.3 ENE 15 19 8 10 1017.4 1017.4 0.0
30/01:30am 13.7 9.7 6.6 62 3.4 ENE 17 22 9 12 1017.9 1017.9 0.0
30/01:00am 13.5 9.1 6.6 63 3.3 ENE 19 22 10 12 1017.4 1017.4 0.0
30/12:30am 13.4 9.4 6.5 63 3.3 ENE 17 22 9 12 1018.0 1018.0 0.0
30/12:00am 13.6 9.7 6.9 64 3.2 ENE 17 20 9 11 1018.5 1018.5 0.0
 
Date/Time
EST
Temp
°C
App
Temp
°C
Dew
Point
°C
Rel
Hum
%
Delta-T
°C
Wind Press
QNH
hPa
Press
MSL
hPa
Rain since
9am
mm
Dir  Spd
km/h
Gust
km/h
Spd
kts
Gust
kts
29/11:30pm 13.6 10.1 7.2 65 3.1 E 15 17 8 9 1019.1 1019.1 0.0
29/11:00pm 13.6 10.5 7.2 65 3.1 ENE 13 15 7 8 1019.6 1019.6 0.0
29/10:30pm 13.5 10.4 7.3 66 3.0 ENE 13 15 7 8 1019.6 1019.6 0.0
29/10:00pm 13.0 9.9 7.2 68 2.8 ENE 13 15 7 8 1019.1 1019.1 0.0
29/09:30pm 13.0 10.2 6.8 66 3.0 ENE 11 13 6 7 1019.0 1019.0 0.0
29/09:00pm 14.1 11.2 6.7 61 3.6 ENE 11 13 6 7 1019.0 1019.0 0.0
29/08:30pm 15.4 11.7 6.4 55 4.4 ENE 15 19 8 10 1019.2 1019.2 0.0
29/08:00pm 15.6 11.1 6.3 54 4.5 NE 19 24 10 13 1018.8 1018.8 0.0
29/07:30pm 15.9 11.3 6.3 53 4.7 ENE 20 26 11 14 1018.0 1018.0 0.0
29/07:00pm 16.3 11.6 5.9 50 5.0 ENE 20 26 11 14 1017.9 1017.9 0.0
29/06:30pm 16.9 12.3 5.8 48 5.4 ENE 19 24 10 13 1017.9 1017.9 0.0
29/06:00pm 17.6 13.4 5.9 46 5.7 ENE 17 24 9 13 1017.9 1017.9 0.0
29/05:30pm 18.3 13.6 5.2 42 6.4 ENE 19 24 10 13 1017.8 1017.8 0.0
29/05:00pm 18.9 14.1 5.4 41 6.6 ENE 20 28 11 15 1017.9 1017.9 0.0
29/04:30pm 19.4 14.1 5.1 39 7.0 NE 22 30 12 16 1018.1 1018.1 0.0
29/04:00pm 20.3 14.6 4.8 36 7.6 ENE 24 33 13 18 1018.1 1018.1 0.0
29/03:30pm 19.7 14.4 5.0 38 7.2 NE 22 32 12 17 1018.9 1018.9 0.0
29/03:00pm 19.3 14.4 5.0 39 7.0 NE 20 28 11 15 1019.3 1019.3 0.0
29/02:30pm 19.0 14.1 5.1 40 6.8 NE 20 32 11 17 1019.2 1019.2 0.0
29/02:00pm 18.6 13.3 4.8 40 6.6 ENE 22 30 12 16 1019.4 1019.4 0.0
29/01:30pm 18.7 13.4 4.8 40 6.7 NE 22 32 12 17 1019.9 1020.0 0.0
29/01:00pm 18.8 13.7 4.2 38 7.0 NE 20 30 11 16 1020.6 1020.7 0.0
29/12:30pm 17.8 13.0 5.4 44 6.0 NE 20 28 11 15 1021.2 1021.3 0.0
29/12:00pm 17.4 13.1 5.4 45 5.8 NE 17 22 9 12 1021.8 1021.9 0.0

Other Formats:

Comma delimited format used in spreadsheet applications
http://www.bom.gov.au/fwo/IDN60801/IDN60801.95695.axf

JavaScript Object Notation format (JSON) in row-major order
http://www.bom.gov.au/fwo/IDN60801/IDN60801.95695.json